createdAt,value
2018-12-10T00:01:36.490Z,12.73
2018-12-10T00:04:03.897Z,16.30
2018-12-10T00:06:31.310Z,18.17
2018-12-10T00:08:58.736Z,17.23
2018-12-10T00:11:26.155Z,8.97
2018-12-10T00:13:53.568Z,11.30
2018-12-10T00:16:20.994Z,13.03
2018-12-10T00:18:48.407Z,11.70
2018-12-10T00:21:15.853Z,15.17
2018-12-10T00:23:43.290Z,12.97
2018-12-10T00:26:10.686Z,14.00
2018-12-10T00:28:38.103Z,13.57
2018-12-10T00:31:05.520Z,16.33
2018-12-10T00:33:32.921Z,18.43
2018-12-10T00:36:00.351Z,14.37
2018-12-10T00:38:27.775Z,13.97
2018-12-10T00:40:55.167Z,15.37
2018-12-10T00:43:22.623Z,15.93
2018-12-10T00:45:50.031Z,15.60
2018-12-10T00:48:17.466Z,19.93
2018-12-10T00:50:44.882Z,13.03
2018-12-10T00:53:12.317Z,14.10
2018-12-10T00:55:39.783Z,17.47
2018-12-10T00:58:07.136Z,18.30
2018-12-10T01:00:34.570Z,11.33
2018-12-10T01:03:01.988Z,20.70
2018-12-10T01:05:29.423Z,13.33
2018-12-10T01:07:56.838Z,16.53
2018-12-10T01:10:24.269Z,16.60
2018-12-10T01:12:51.668Z,13.80
2018-12-10T01:15:19.099Z,15.57
2018-12-10T01:17:46.514Z,13.37
2018-12-10T01:20:13.934Z,18.23
2018-12-10T01:22:41.386Z,14.13
2018-12-10T01:25:08.790Z,16.23
2018-12-10T01:27:36.243Z,15.97
2018-12-10T01:30:03.622Z,12.87
2018-12-10T01:32:31.084Z,17.30
2018-12-10T01:34:58.501Z,13.70
2018-12-10T01:37:25.927Z,13.23
2018-12-10T01:39:53.332Z,14.27
2018-12-10T01:42:20.771Z,10.57
2018-12-10T01:44:48.190Z,14.10
2018-12-10T01:47:15.666Z,13.83
2018-12-10T01:49:43.060Z,11.20
2018-12-10T01:52:10.466Z,14.20
2018-12-10T01:54:37.885Z,10.70
2018-12-10T01:57:05.302Z,8.23
2018-12-10T01:59:32.754Z,16.80
2018-12-10T02:02:00.176Z,12.77
2018-12-10T02:04:27.619Z,11.57
2018-12-10T02:06:55.021Z,10.90
2018-12-10T02:09:22.433Z,10.73
2018-12-10T02:11:49.863Z,10.57
2018-12-10T02:14:17.289Z,16.00
2018-12-10T02:16:44.702Z,15.30
2018-12-10T02:19:12.128Z,11.17
2018-12-10T02:21:39.534Z,13.17
2018-12-10T02:24:06.966Z,11.00
2018-12-10T02:26:34.395Z,11.23
2018-12-10T02:29:14.136Z,12.13
2018-12-10T02:31:41.576Z,12.57
2018-12-10T02:34:08.981Z,11.43
2018-12-10T02:36:36.405Z,11.20
2018-12-10T02:39:03.803Z,9.83
2018-12-10T02:41:31.265Z,6.20
2018-12-10T02:43:58.656Z,8.87
2018-12-10T02:46:26.049Z,12.37
2018-12-10T02:48:53.498Z,13.90
2018-12-10T02:51:20.921Z,7.67
2018-12-10T02:53:48.309Z,7.03
2018-12-10T02:56:15.731Z,9.80
2018-12-10T02:58:43.154Z,9.30
2018-12-10T03:01:10.614Z,9.80
2018-12-10T03:03:38.020Z,10.10
2018-12-10T03:06:05.421Z,8.27
2018-12-10T03:08:32.873Z,10.97
2018-12-10T03:11:00.280Z,11.23
2018-12-10T03:13:27.717Z,9.67
2018-12-10T03:15:55.133Z,10.43
2018-12-10T03:18:22.553Z,8.53
2018-12-10T03:20:49.966Z,13.40
2018-12-10T03:23:17.399Z,10.00
2018-12-10T03:25:44.808Z,11.93
2018-12-10T03:28:12.263Z,15.37
2018-12-10T03:30:39.678Z,12.13
2018-12-10T03:33:07.079Z,9.27
2018-12-10T03:35:34.519Z,7.43
2018-12-10T03:38:01.912Z,14.90
2018-12-10T03:40:29.368Z,12.50
2018-12-10T03:42:56.795Z,18.50
2018-12-10T03:45:24.230Z,10.97
2018-12-10T03:47:51.641Z,7.57
2018-12-10T03:50:19.062Z,10.67
2018-12-10T03:52:46.472Z,13.17
2018-12-10T03:55:13.909Z,9.07
2018-12-10T03:57:41.329Z,10.90
2018-12-10T04:00:08.766Z,10.80
2018-12-10T04:02:36.175Z,10.32
2018-12-10T04:05:03.607Z,11.77
2018-12-10T04:07:31.030Z,8.47
2018-12-10T04:09:58.444Z,8.67
2018-12-10T04:12:25.881Z,12.27
2018-12-10T04:14:53.288Z,10.27
2018-12-10T04:17:20.830Z,19.47
2018-12-10T04:19:48.233Z,10.30
2018-12-10T04:22:15.677Z,10.80
2018-12-10T04:24:43.072Z,9.13
2018-12-10T04:27:10.498Z,7.33
2018-12-10T04:29:37.910Z,14.13
2018-12-10T04:32:05.449Z,14.63
2018-12-10T04:34:32.856Z,11.37
2018-12-10T04:37:00.275Z,9.07
2018-12-10T04:39:27.715Z,10.43
2018-12-10T04:41:55.127Z,8.77
2018-12-10T04:44:22.561Z,12.83
2018-12-10T04:46:49.981Z,12.27
2018-12-10T04:49:17.432Z,16.90
2018-12-10T04:51:44.846Z,12.40
2018-12-10T04:54:12.284Z,8.97
2018-12-10T04:56:39.702Z,13.07
2018-12-10T04:59:07.225Z,11.67
2018-12-10T05:01:34.534Z,8.90
2018-12-10T05:04:01.992Z,14.73
2018-12-10T05:06:29.408Z,9.57
2018-12-10T05:08:56.834Z,11.77
2018-12-10T05:11:24.231Z,12.93
2018-12-10T05:13:51.660Z,10.20
2018-12-10T05:16:19.091Z,12.70
2018-12-10T05:18:46.501Z,11.27
2018-12-10T05:21:13.934Z,10.60
2018-12-10T05:23:41.357Z,15.50
2018-12-10T05:26:08.799Z,14.13
2018-12-10T05:28:36.199Z,12.37
2018-12-10T05:31:03.639Z,13.10
2018-12-10T05:33:31.083Z,14.60
2018-12-10T05:35:58.504Z,13.57
2018-12-10T05:38:25.906Z,17.07
2018-12-10T05:40:53.352Z,11.40
2018-12-10T05:43:20.764Z,13.87
2018-12-10T05:45:48.187Z,13.63
2018-12-10T05:48:15.593Z,15.13
2018-12-10T05:50:43.011Z,11.33
2018-12-10T05:53:10.458Z,12.97
2018-12-10T05:55:37.904Z,13.10
2018-12-10T05:58:05.343Z,11.07
2018-12-10T06:00:32.762Z,13.17
2018-12-10T06:03:00.200Z,15.17
2018-12-10T06:05:27.602Z,8.80
2018-12-10T06:07:55.034Z,11.13
2018-12-10T06:10:22.416Z,9.50
2018-12-10T06:12:49.862Z,13.30
2018-12-10T06:15:17.280Z,12.50
2018-12-10T06:17:44.736Z,9.97
2018-12-10T06:20:12.138Z,10.70
2018-12-10T06:22:39.537Z,7.40
2018-12-10T06:25:06.970Z,12.67
2018-12-10T06:27:34.382Z,13.97
2018-12-10T06:30:01.828Z,14.73
2018-12-10T06:32:29.245Z,11.10
2018-12-10T06:34:56.682Z,12.57
2018-12-10T06:37:24.122Z,14.47
2018-12-10T06:39:51.588Z,10.57
2018-12-10T06:42:18.973Z,9.93
2018-12-10T06:44:46.411Z,11.07
2018-12-10T06:47:13.826Z,13.97
2018-12-10T06:49:41.318Z,12.50
2018-12-10T06:52:08.700Z,14.07
2018-12-10T06:54:36.106Z,14.23
2018-12-10T06:57:03.552Z,11.03
2018-12-10T06:59:30.967Z,12.00
2018-12-10T07:01:58.402Z,12.13
2018-12-10T07:04:25.812Z,12.57
2018-12-10T07:06:53.227Z,13.30
2018-12-10T07:09:20.655Z,16.93
2018-12-10T07:11:48.100Z,17.17
2018-12-10T07:14:15.518Z,15.77
2018-12-10T07:16:42.984Z,12.13
2018-12-10T07:19:10.407Z,18.07
2018-12-10T07:21:37.885Z,13.73
2018-12-10T07:24:05.238Z,12.63
2018-12-10T07:26:32.668Z,11.83
2018-12-10T07:29:00.102Z,9.57
2018-12-10T07:31:27.523Z,10.83
2018-12-10T07:33:54.961Z,15.27
2018-12-10T07:36:22.407Z,11.87
2018-12-10T07:38:49.819Z,12.17
2018-12-10T07:41:17.247Z,12.27
2018-12-10T07:43:44.699Z,17.60
2018-12-10T07:46:12.118Z,11.67
2018-12-10T07:48:39.551Z,11.80
2018-12-10T07:51:06.955Z,16.53
2018-12-10T07:53:34.406Z,15.70
2018-12-10T07:56:01.870Z,13.03
2018-12-10T07:58:29.322Z,18.87
2018-12-10T08:00:56.756Z,16.20
2018-12-10T08:03:24.186Z,13.87
2018-12-10T08:05:51.630Z,18.80
2018-12-10T08:08:19.032Z,12.33
2018-12-10T08:10:46.474Z,17.60
2018-12-10T08:13:13.881Z,15.60
2018-12-10T08:15:41.313Z,21.90
2018-12-10T08:18:08.727Z,13.63
2018-12-10T08:20:36.157Z,12.47
2018-12-10T08:23:03.590Z,18.03
2018-12-10T08:25:31.016Z,11.47
2018-12-10T08:27:58.425Z,17.80
2018-12-10T08:30:25.881Z,16.47
2018-12-10T08:32:53.356Z,12.63
2018-12-10T08:35:20.746Z,12.97
2018-12-10T08:37:48.200Z,13.80
2018-12-10T08:40:15.629Z,20.60
2018-12-10T08:42:43.002Z,17.17
2018-12-10T08:45:10.434Z,22.10
2018-12-10T08:47:37.847Z,18.83
2018-12-10T08:50:05.268Z,17.00
2018-12-10T08:52:32.686Z,15.00
2018-12-10T08:55:00.124Z,15.30
2018-12-10T08:57:27.524Z,16.87
2018-12-10T08:59:54.955Z,19.07
2018-12-10T09:02:22.383Z,19.23
2018-12-10T09:04:49.818Z,16.87
2018-12-10T09:07:17.302Z,20.50
2018-12-10T09:09:44.685Z,17.33
2018-12-10T09:12:12.115Z,18.53
2018-12-10T09:14:39.518Z,21.03
2018-12-10T09:17:06.952Z,19.80
2018-12-10T09:19:34.378Z,16.00
2018-12-10T09:22:01.814Z,17.27
2018-12-10T09:24:29.217Z,22.30
2018-12-10T09:26:56.638Z,22.47
2018-12-10T09:29:24.164Z,19.50
2018-12-10T09:31:51.510Z,19.13
2018-12-10T09:34:18.915Z,17.63
2018-12-10T09:36:46.337Z,23.27
2018-12-10T09:39:13.824Z,19.77
2018-12-10T09:41:41.235Z,18.13
2018-12-10T09:44:08.705Z,14.93
2018-12-10T09:46:36.135Z,13.37
2018-12-10T09:49:03.583Z,14.47
2018-12-10T09:51:30.985Z,13.73
2018-12-10T09:53:58.391Z,14.93
2018-12-10T09:56:25.941Z,13.87
2018-12-10T09:58:53.260Z,9.57
2018-12-10T10:01:20.687Z,17.37
2018-12-10T10:03:48.130Z,13.10
2018-12-10T10:06:15.558Z,16.40
2018-12-10T10:08:42.993Z,18.20
2018-12-10T10:11:10.477Z,16.57
2018-12-10T10:13:37.955Z,10.97
2018-12-10T10:16:05.359Z,13.20
2018-12-10T10:18:32.805Z,14.00
2018-12-10T10:21:00.215Z,17.17
2018-12-10T10:23:27.653Z,14.80
2018-12-10T10:25:55.099Z,15.73
2018-12-10T10:28:22.570Z,13.13
2018-12-10T10:30:50.007Z,19.17
2018-12-10T10:33:17.456Z,14.63
2018-12-10T10:35:44.943Z,17.57
2018-12-10T10:38:12.311Z,15.73
2018-12-10T10:40:39.741Z,13.17
2018-12-10T10:43:07.171Z,12.37
2018-12-10T10:45:35.096Z,14.77
2018-12-10T10:48:02.034Z,16.43
2018-12-10T10:50:29.473Z,13.20
2018-12-10T10:52:56.908Z,14.73
2018-12-10T10:55:24.310Z,12.60
2018-12-10T10:57:51.737Z,16.83
2018-12-10T11:00:37.468Z,13.03
2018-12-10T11:03:04.890Z,17.03
2018-12-10T11:05:32.302Z,12.40
2018-12-10T11:07:59.753Z,13.00
2018-12-10T11:10:28.375Z,16.07
2018-12-10T11:12:54.601Z,10.37
2018-12-10T11:15:22.005Z,13.57
2018-12-10T11:17:49.476Z,15.93
2018-12-10T11:20:16.919Z,12.33
2018-12-10T11:22:44.337Z,9.37
2018-12-10T11:25:11.783Z,21.87
2018-12-10T11:27:39.231Z,13.00
2018-12-10T11:30:06.649Z,11.87
2018-12-10T11:32:34.213Z,13.13
2018-12-10T11:35:01.567Z,12.50
2018-12-10T11:37:28.981Z,9.80
2018-12-10T11:39:56.400Z,17.27
2018-12-10T11:42:23.831Z,12.50
2018-12-10T11:44:51.252Z,12.77
2018-12-10T11:47:18.700Z,9.73
2018-12-10T11:49:46.103Z,10.10
2018-12-10T11:52:13.545Z,14.93
2018-12-10T11:54:40.974Z,14.67
2018-12-10T11:57:08.373Z,11.27
2018-12-10T11:59:35.832Z,9.87
2018-12-10T12:02:03.248Z,11.77
2018-12-10T12:04:30.694Z,12.13
2018-12-10T12:06:58.144Z,14.80
2018-12-10T12:09:25.583Z,10.53
2018-12-10T12:11:53.000Z,13.03
2018-12-10T12:14:20.415Z,12.83
2018-12-10T12:16:47.976Z,13.37
2018-12-10T12:19:15.274Z,8.33
2018-12-10T12:21:42.731Z,11.47
2018-12-10T12:24:10.151Z,8.13
2018-12-10T12:26:37.586Z,12.93
2018-12-10T12:29:04.992Z,9.80
2018-12-10T12:31:32.419Z,9.27
2018-12-10T12:33:59.871Z,7.63
2018-12-10T12:36:27.403Z,8.87
2018-12-10T12:38:54.823Z,8.53
2018-12-10T12:41:22.230Z,6.83
2018-12-10T12:43:49.715Z,12.47
2018-12-10T12:46:17.102Z,11.10
2018-12-10T12:48:44.561Z,6.97
2018-12-10T12:51:11.977Z,11.00
2018-12-10T12:53:39.404Z,6.60
2018-12-10T12:56:06.814Z,9.83
2018-12-10T12:58:34.246Z,6.83
2018-12-10T13:01:01.683Z,6.03
2018-12-10T13:03:29.110Z,11.27
2018-12-10T13:05:56.557Z,7.50
2018-12-10T13:08:30.800Z,8.03
2018-12-10T13:10:51.425Z,3.97
2018-12-10T13:13:18.837Z,6.70
2018-12-10T13:15:46.286Z,12.70
2018-12-10T13:18:13.744Z,4.67
2018-12-10T13:20:41.202Z,7.00
2018-12-10T13:23:08.610Z,14.70
2018-12-10T13:25:36.054Z,6.87
2018-12-10T13:28:03.453Z,9.83
2018-12-10T13:30:30.956Z,8.50
2018-12-10T13:32:58.314Z,5.17
2018-12-10T13:35:25.761Z,12.63
2018-12-10T13:37:53.203Z,8.43
2018-12-10T13:40:20.660Z,11.07
2018-12-10T13:42:48.095Z,5.37
2018-12-10T13:45:15.536Z,9.23
2018-12-10T13:47:43.006Z,8.07
2018-12-10T13:50:10.451Z,7.33
2018-12-10T13:52:37.867Z,5.50
2018-12-10T13:55:05.298Z,8.50
2018-12-10T13:57:32.714Z,8.60
2018-12-10T14:00:03.080Z,5.00
2018-12-10T14:02:34.397Z,5.50
2018-12-10T14:05:02.225Z,14.40
2018-12-10T14:07:29.658Z,3.13
2018-12-10T14:09:57.079Z,3.93
2018-12-10T14:12:24.511Z,3.83
2018-12-10T14:14:52.003Z,6.90
2018-12-10T14:17:19.414Z,4.73
2018-12-10T14:19:47.026Z,8.00
2018-12-10T14:22:14.280Z,4.63
2018-12-10T14:24:42.760Z,5.17
2018-12-10T14:27:10.204Z,5.77
2018-12-10T14:29:37.618Z,6.90
2018-12-10T14:32:05.171Z,5.17
2018-12-10T14:34:32.592Z,7.17
2018-12-10T14:37:00.055Z,5.70
2018-12-10T14:39:27.478Z,4.07
2018-12-10T14:41:54.981Z,7.67
2018-12-10T14:44:22.443Z,6.37
2018-12-10T14:46:49.995Z,8.00
2018-12-10T14:49:17.312Z,4.40
2018-12-10T14:51:44.723Z,6.70
2018-12-10T14:54:12.196Z,5.03
2018-12-10T14:56:39.598Z,7.30
2018-12-10T14:59:07.034Z,6.53
2018-12-10T15:01:34.454Z,4.57
2018-12-10T15:04:01.961Z,3.80
2018-12-10T15:06:29.406Z,7.23
2018-12-10T15:08:56.830Z,4.73
2018-12-10T15:11:24.275Z,5.27
2018-12-10T15:13:51.709Z,7.27
2018-12-10T15:16:19.369Z,5.43
2018-12-10T15:18:46.780Z,8.43
2018-12-10T15:21:14.216Z,9.13
2018-12-10T15:23:41.625Z,3.23
2018-12-10T15:26:09.066Z,6.13
2018-12-10T15:28:36.479Z,6.23
2018-12-10T15:31:03.925Z,9.20
2018-12-10T15:33:31.356Z,7.70
2018-12-10T15:35:58.815Z,8.43
2018-12-10T15:38:26.244Z,11.57
2018-12-10T15:40:53.657Z,8.97
2018-12-10T15:43:21.105Z,9.63
2018-12-10T15:45:48.515Z,8.37
2018-12-10T15:48:15.971Z,12.27
2018-12-10T15:50:43.385Z,9.63
2018-12-10T15:53:10.874Z,8.33
2018-12-10T15:55:38.262Z,7.57
2018-12-10T15:58:05.743Z,9.67
2018-12-10T16:00:33.228Z,5.20
2018-12-10T16:03:00.666Z,6.93
2018-12-10T16:05:28.161Z,8.37
2018-12-10T16:07:55.545Z,3.83
2018-12-10T16:10:22.994Z,8.97
2018-12-10T16:12:50.387Z,5.47
2018-12-10T16:15:17.819Z,10.43
2018-12-10T16:17:45.255Z,6.90
2018-12-10T16:20:12.674Z,8.43
2018-12-10T16:22:40.114Z,8.37
2018-12-10T16:25:07.542Z,6.80
2018-12-10T16:27:35.019Z,5.83
2018-12-10T16:30:02.440Z,5.93
2018-12-10T16:32:29.853Z,7.30
2018-12-10T16:34:57.323Z,8.57
2018-12-10T16:37:24.702Z,6.63
2018-12-10T16:39:52.145Z,5.80
2018-12-10T16:42:19.572Z,10.27
2018-12-10T16:44:47.033Z,12.67
2018-12-10T16:47:14.464Z,8.23
2018-12-10T16:49:41.893Z,14.93
2018-12-10T16:52:09.353Z,8.17
2018-12-10T16:54:36.826Z,6.37
2018-12-10T16:57:04.232Z,10.60
2018-12-10T16:59:31.667Z,7.37
2018-12-10T17:01:59.105Z,8.50
2018-12-10T17:04:26.537Z,8.17
2018-12-10T17:06:53.943Z,7.73
2018-12-10T17:09:21.372Z,11.73
2018-12-10T17:11:48.819Z,11.13
2018-12-10T17:14:16.275Z,7.00
2018-12-10T17:16:43.731Z,5.50
2018-12-10T17:19:11.097Z,8.43
2018-12-10T17:21:38.548Z,9.77
2018-12-10T17:24:05.973Z,11.13
2018-12-10T17:26:33.386Z,8.70
2018-12-10T17:29:00.822Z,13.57
2018-12-10T17:31:28.308Z,9.30
2018-12-10T17:33:55.716Z,11.63
2018-12-10T17:36:23.191Z,9.83
2018-12-10T17:38:50.607Z,7.30
2018-12-10T17:41:18.045Z,7.57
2018-12-10T17:43:45.446Z,8.43
2018-12-10T17:46:12.894Z,6.93
2018-12-10T17:48:40.338Z,10.13
2018-12-10T17:51:07.748Z,6.73
2018-12-10T17:53:35.178Z,6.80
2018-12-10T17:56:02.607Z,6.17
2018-12-10T17:58:30.018Z,7.03
2018-12-10T18:00:57.490Z,7.97
2018-12-10T18:03:24.920Z,5.20
2018-12-10T18:05:52.385Z,6.23
2018-12-10T18:08:19.846Z,10.20
2018-12-10T18:10:47.261Z,3.93
2018-12-10T18:13:14.681Z,10.77
2018-12-10T18:15:42.093Z,5.40
2018-12-10T18:18:09.524Z,6.33
2018-12-10T18:20:36.952Z,9.17
2018-12-10T18:23:04.386Z,7.20
2018-12-10T18:25:31.816Z,10.07
2018-12-10T18:27:59.254Z,20.80
2018-12-10T18:30:26.654Z,11.87
2018-12-10T18:32:54.081Z,7.87
2018-12-10T18:35:21.488Z,8.70
2018-12-10T18:37:48.937Z,16.37
2018-12-10T18:40:16.360Z,9.57
2018-12-10T18:42:43.835Z,10.97
2018-12-10T18:45:11.272Z,15.07
2018-12-10T18:47:38.715Z,12.40
2018-12-10T18:50:06.183Z,11.93
2018-12-10T18:52:33.620Z,12.43
2018-12-10T18:55:01.018Z,9.30
2018-12-10T18:57:28.470Z,10.50
2018-12-10T18:59:55.878Z,13.87
2018-12-10T19:02:23.313Z,11.27
2018-12-10T19:04:50.848Z,8.30
2018-12-10T19:07:18.164Z,9.67
2018-12-10T19:09:45.616Z,9.33
2018-12-10T19:12:13.109Z,14.13
2018-12-10T19:14:40.549Z,12.00
2018-12-10T19:17:08.029Z,11.57
2018-12-10T19:19:35.423Z,11.63
2018-12-10T19:22:02.962Z,8.60
2018-12-10T19:24:30.319Z,9.07
2018-12-10T19:26:57.771Z,10.03
2018-12-10T19:29:25.180Z,8.83
2018-12-10T19:31:52.611Z,8.90
2018-12-10T19:34:20.062Z,11.43
2018-12-10T19:36:47.463Z,8.87
2018-12-10T19:39:14.870Z,11.50
2018-12-10T19:41:42.288Z,12.97
2018-12-10T19:44:09.870Z,11.93
2018-12-10T19:46:37.431Z,11.00
2018-12-10T19:49:04.885Z,9.20
2018-12-10T19:51:32.328Z,11.03
2018-12-10T19:54:00.077Z,14.67
2018-12-10T19:56:27.477Z,12.67
2018-12-10T19:58:54.904Z,10.50
2018-12-10T20:01:22.330Z,10.30
2018-12-10T20:03:49.789Z,11.07
2018-12-10T20:06:17.198Z,11.03
2018-12-10T20:08:44.652Z,7.73
2018-12-10T20:11:12.102Z,8.37
2018-12-10T20:13:39.488Z,12.40
2018-12-10T20:16:06.950Z,14.43
2018-12-10T20:18:34.367Z,10.43
2018-12-10T20:21:01.826Z,11.93
2018-12-10T20:23:29.232Z,8.90
2018-12-10T20:25:56.680Z,10.63
2018-12-10T20:28:24.097Z,16.27
2018-12-10T20:30:51.840Z,9.03
2018-12-10T20:33:18.969Z,7.90
2018-12-10T20:35:46.359Z,8.50
2018-12-10T20:38:13.768Z,6.37
2018-12-10T20:40:41.201Z,15.70
2018-12-10T20:43:08.604Z,6.97
2018-12-10T20:45:36.073Z,10.00
2018-12-10T20:48:03.502Z,11.40
2018-12-10T20:50:30.923Z,8.60
2018-12-10T20:52:58.337Z,16.67
2018-12-10T20:55:25.794Z,10.43
2018-12-10T20:57:53.223Z,7.87
2018-12-10T21:00:20.669Z,9.53
2018-12-10T21:02:48.100Z,8.73
2018-12-10T21:05:15.532Z,8.13
2018-12-10T21:07:42.950Z,14.40
2018-12-10T21:10:10.395Z,9.77
2018-12-10T21:12:37.817Z,13.73
2018-12-10T21:15:05.248Z,10.80
2018-12-10T21:17:32.656Z,9.60
2018-12-10T21:20:00.063Z,14.70
2018-12-10T21:22:27.516Z,13.20
2018-12-10T21:24:54.927Z,10.97
2018-12-10T21:27:22.356Z,23.43
2018-12-10T21:29:49.790Z,15.88
2018-12-10T21:32:17.202Z,12.57
2018-12-10T21:34:44.630Z,14.23
2018-12-10T21:37:12.049Z,17.10
2018-12-10T21:39:39.490Z,19.43
2018-12-10T21:42:06.893Z,20.53
2018-12-10T21:44:34.329Z,18.07
2018-12-10T21:47:01.742Z,18.63
2018-12-10T21:49:29.170Z,16.33
2018-12-10T21:51:56.619Z,13.13
2018-12-10T21:54:24.050Z,18.23
2018-12-10T21:56:51.458Z,17.37
2018-12-10T21:59:18.883Z,20.40
2018-12-10T22:01:46.315Z,17.40
2018-12-10T22:04:13.754Z,18.17
2018-12-10T22:06:41.189Z,17.80
2018-12-10T22:09:08.619Z,21.20
2018-12-10T22:11:36.074Z,19.93
2018-12-10T22:14:03.497Z,23.33
2018-12-10T22:16:30.903Z,26.27
2018-12-10T22:18:58.340Z,21.53
2018-12-10T22:21:25.765Z,23.00
2018-12-10T22:23:53.214Z,26.57
2018-12-10T22:26:20.655Z,21.07
2018-12-10T22:28:48.075Z,24.20
2018-12-10T22:31:15.531Z,22.37
2018-12-10T22:33:42.984Z,20.13
2018-12-10T22:36:10.432Z,21.70
2018-12-10T22:38:37.852Z,27.93
2018-12-10T22:41:05.280Z,24.43
2018-12-10T22:43:32.688Z,23.03
2018-12-10T22:46:00.116Z,22.13
2018-12-10T22:48:27.552Z,23.93
2018-12-10T22:50:54.988Z,25.10
2018-12-10T22:53:22.445Z,27.03
2018-12-10T22:56:04.861Z,29.20
2018-12-10T22:58:34.602Z,25.43
2018-12-10T23:01:00.712Z,29.40
2018-12-10T23:03:28.143Z,29.50
2018-12-10T23:05:55.592Z,28.83
2018-12-10T23:08:23.033Z,22.07
2018-12-10T23:10:50.450Z,25.00
2018-12-10T23:13:17.913Z,23.67
2018-12-10T23:15:45.328Z,24.03
2018-12-10T23:18:12.767Z,24.03
2018-12-10T23:20:40.199Z,29.13
2018-12-10T23:23:07.627Z,25.90
2018-12-10T23:25:35.051Z,30.80
2018-12-10T23:28:02.507Z,28.27
2018-12-10T23:30:31.333Z,25.67
2018-12-10T23:32:57.358Z,29.33
2018-12-10T23:35:24.808Z,23.77
2018-12-10T23:37:52.238Z,22.93
2018-12-10T23:40:19.646Z,25.83
2018-12-10T23:43:05.159Z,28.87
2018-12-10T23:45:32.608Z,25.53
2018-12-10T23:48:00.058Z,21.27
2018-12-10T23:50:27.498Z,24.63
2018-12-10T23:52:54.904Z,24.80
2018-12-10T23:55:22.358Z,22.60
2018-12-10T23:57:49.771Z,23.63
